sensor_id;sensor_type;location;lat;lon;timestamp;P1;durP1;ratioP1;P2;durP2;ratioP2
17631;SDS011;8934;51.194;17.150;2023-02-28T00:00:17;24.27;;;11.75;;
17631;SDS011;8934;51.194;17.150;2023-02-28T00:03:05;23.60;;;11.38;;
17631;SDS011;8934;51.194;17.150;2023-02-28T00:05:53;24.15;;;11.85;;
17631;SDS011;8934;51.194;17.150;2023-02-28T00:08:40;26.02;;;12.95;;
17631;SDS011;8934;51.194;17.150;2023-02-28T00:11:29;23.77;;;11.80;;
17631;SDS011;8934;51.194;17.150;2023-02-28T00:14:17;22.58;;;10.63;;
17631;SDS011;8934;51.194;17.150;2023-02-28T00:17:04;24.48;;;11.23;;
17631;SDS011;8934;51.194;17.150;2023-02-28T00:19:52;21.75;;;10.43;;
17631;SDS011;8934;51.194;17.150;2023-02-28T00:22:41;23.73;;;11.68;;
17631;SDS011;8934;51.194;17.150;2023-02-28T00:25:29;24.95;;;11.55;;
17631;SDS011;8934;51.194;17.150;2023-02-28T00:28:18;22.98;;;12.85;;
17631;SDS011;8934;51.194;17.150;2023-02-28T00:31:06;24.15;;;12.40;;
17631;SDS011;8934;51.194;17.150;2023-02-28T00:33:54;21.83;;;10.90;;
17631;SDS011;8934;51.194;17.150;2023-02-28T00:36:41;23.17;;;11.18;;
17631;SDS011;8934;51.194;17.150;2023-02-28T00:39:33;30.02;;;13.27;;
17631;SDS011;8934;51.194;17.150;2023-02-28T00:42:21;24.48;;;12.30;;
17631;SDS011;8934;51.194;17.150;2023-02-28T00:45:10;23.58;;;12.15;;
17631;SDS011;8934;51.194;17.150;2023-02-28T00:47:58;25.48;;;12.90;;
17631;SDS011;8934;51.194;17.150;2023-02-28T00:50:47;31.88;;;13.70;;
17631;SDS011;8934;51.194;17.150;2023-02-28T00:53:36;28.17;;;15.80;;
17631;SDS011;8934;51.194;17.150;2023-02-28T00:56:23;33.28;;;17.77;;
17631;SDS011;8934;51.194;17.150;2023-02-28T00:59:11;31.33;;;12.88;;
17631;SDS011;8934;51.194;17.150;2023-02-28T01:02:00;29.30;;;14.00;;
17631;SDS011;8934;51.194;17.150;2023-02-28T01:04:48;29.77;;;13.32;;
17631;SDS011;8934;51.194;17.150;2023-02-28T01:07:36;31.42;;;14.02;;
17631;SDS011;8934;51.194;17.150;2023-02-28T01:10:24;24.10;;;12.25;;
17631;SDS011;8934;51.194;17.150;2023-02-28T01:13:12;27.42;;;14.23;;
17631;SDS011;8934;51.194;17.150;2023-02-28T01:16:00;26.05;;;12.43;;
17631;SDS011;8934;51.194;17.150;2023-02-28T01:18:49;24.77;;;12.50;;
17631;SDS011;8934;51.194;17.150;2023-02-28T01:21:37;28.13;;;14.40;;
17631;SDS011;8934;51.194;17.150;2023-02-28T01:24:24;29.38;;;15.40;;
17631;SDS011;8934;51.194;17.150;2023-02-28T01:27:12;23.45;;;13.15;;
17631;SDS011;8934;51.194;17.150;2023-02-28T01:30:00;25.80;;;12.00;;
17631;SDS011;8934;51.194;17.150;2023-02-28T01:32:47;23.60;;;11.30;;
17631;SDS011;8934;51.194;17.150;2023-02-28T01:35:38;25.30;;;11.07;;
17631;SDS011;8934;51.194;17.150;2023-02-28T01:38:26;26.23;;;11.32;;
17631;SDS011;8934;51.194;17.150;2023-02-28T01:41:16;23.75;;;12.18;;
17631;SDS011;8934;51.194;17.150;2023-02-28T01:44:05;44.08;;;17.67;;
17631;SDS011;8934;51.194;17.150;2023-02-28T01:46:54;34.20;;;15.38;;
17631;SDS011;8934;51.194;17.150;2023-02-28T01:49:41;28.88;;;14.20;;
17631;SDS011;8934;51.194;17.150;2023-02-28T01:52:32;27.98;;;13.13;;
17631;SDS011;8934;51.194;17.150;2023-02-28T01:55:20;24.85;;;13.00;;
17631;SDS011;8934;51.194;17.150;2023-02-28T01:58:16;30.33;;;14.10;;
17631;SDS011;8934;51.194;17.150;2023-02-28T02:01:04;26.23;;;13.20;;
17631;SDS011;8934;51.194;17.150;2023-02-28T02:03:52;30.27;;;13.98;;
17631;SDS011;8934;51.194;17.150;2023-02-28T02:06:44;30.90;;;13.57;;
17631;SDS011;8934;51.194;17.150;2023-02-28T02:09:35;27.38;;;14.02;;
17631;SDS011;8934;51.194;17.150;2023-02-28T02:12:25;27.40;;;13.07;;
17631;SDS011;8934;51.194;17.150;2023-02-28T02:15:20;25.88;;;13.48;;
17631;SDS011;8934;51.194;17.150;2023-02-28T02:18:15;29.33;;;14.38;;
17631;SDS011;8934;51.194;17.150;2023-02-28T02:24:39;29.60;;;14.63;;
17631;SDS011;8934;51.194;17.150;2023-02-28T02:27:55;31.38;;;14.63;;
17631;SDS011;8934;51.194;17.150;2023-02-28T02:31:09;29.27;;;15.32;;
17631;SDS011;8934;51.194;17.150;2023-02-28T02:34:27;29.88;;;14.02;;
17631;SDS011;8934;51.194;17.150;2023-02-28T02:37:25;27.25;;;13.45;;
17631;SDS011;8934;51.194;17.150;2023-02-28T02:40:18;28.05;;;14.18;;
17631;SDS011;8934;51.194;17.150;2023-02-28T02:43:10;23.33;;;12.55;;
17631;SDS011;8934;51.194;17.150;2023-02-28T02:46:03;27.33;;;13.20;;
17631;SDS011;8934;51.194;17.150;2023-02-28T02:48:55;27.38;;;13.80;;
17631;SDS011;8934;51.194;17.150;2023-02-28T02:51:47;26.13;;;14.07;;
17631;SDS011;8934;51.194;17.150;2023-02-28T02:54:37;28.77;;;13.40;;
17631;SDS011;8934;51.194;17.150;2023-02-28T02:57:29;23.73;;;13.55;;
17631;SDS011;8934;51.194;17.150;2023-02-28T03:00:22;27.48;;;13.82;;
17631;SDS011;8934;51.194;17.150;2023-02-28T03:03:12;26.02;;;13.02;;
17631;SDS011;8934;51.194;17.150;2023-02-28T03:06:06;24.50;;;13.48;;
17631;SDS011;8934;51.194;17.150;2023-02-28T03:08:55;23.38;;;13.45;;
17631;SDS011;8934;51.194;17.150;2023-02-28T03:11:46;26.95;;;12.07;;
17631;SDS011;8934;51.194;17.150;2023-02-28T03:14:39;25.83;;;12.93;;
17631;SDS011;8934;51.194;17.150;2023-02-28T03:17:42;28.05;;;14.00;;
17631;SDS011;8934;51.194;17.150;2023-02-28T03:20:45;29.20;;;13.90;;
17631;SDS011;8934;51.194;17.150;2023-02-28T03:23:45;28.25;;;14.20;;
17631;SDS011;8934;51.194;17.150;2023-02-28T03:26:42;28.35;;;13.45;;
17631;SDS011;8934;51.194;17.150;2023-02-28T03:29:36;26.40;;;13.32;;
17631;SDS011;8934;51.194;17.150;2023-02-28T03:32:28;28.20;;;13.90;;
17631;SDS011;8934;51.194;17.150;2023-02-28T03:35:20;29.55;;;13.82;;
17631;SDS011;8934;51.194;17.150;2023-02-28T03:38:11;25.30;;;13.23;;
17631;SDS011;8934;51.194;17.150;2023-02-28T03:41:05;33.42;;;14.02;;
17631;SDS011;8934;51.194;17.150;2023-02-28T03:43:58;25.15;;;13.05;;
17631;SDS011;8934;51.194;17.150;2023-02-28T03:46:51;24.45;;;12.52;;
17631;SDS011;8934;51.194;17.150;2023-02-28T03:49:43;21.08;;;11.45;;
17631;SDS011;8934;51.194;17.150;2023-02-28T03:52:36;22.33;;;12.30;;
17631;SDS011;8934;51.194;17.150;2023-02-28T03:55:32;29.15;;;12.88;;
17631;SDS011;8934;51.194;17.150;2023-02-28T03:58:25;30.60;;;14.43;;
17631;SDS011;8934;51.194;17.150;2023-02-28T04:01:21;30.98;;;15.55;;
17631;SDS011;8934;51.194;17.150;2023-02-28T04:04:13;23.75;;;12.60;;
17631;SDS011;8934;51.194;17.150;2023-02-28T04:07:03;25.00;;;13.10;;
17631;SDS011;8934;51.194;17.150;2023-02-28T04:09:52;27.58;;;11.95;;
17631;SDS011;8934;51.194;17.150;2023-02-28T04:12:39;25.08;;;13.32;;
17631;SDS011;8934;51.194;17.150;2023-02-28T04:15:27;27.27;;;13.55;;
17631;SDS011;8934;51.194;17.150;2023-02-28T04:18:16;25.63;;;12.65;;
17631;SDS011;8934;51.194;17.150;2023-02-28T04:21:04;23.88;;;12.65;;
17631;SDS011;8934;51.194;17.150;2023-02-28T04:23:52;22.67;;;11.77;;
17631;SDS011;8934;51.194;17.150;2023-02-28T04:26:40;21.38;;;11.48;;
17631;SDS011;8934;51.194;17.150;2023-02-28T04:29:30;26.35;;;13.20;;
17631;SDS011;8934;51.194;17.150;2023-02-28T04:32:18;25.65;;;13.00;;
17631;SDS011;8934;51.194;17.150;2023-02-28T04:35:08;23.75;;;12.02;;
17631;SDS011;8934;51.194;17.150;2023-02-28T04:37:57;28.67;;;13.40;;
17631;SDS011;8934;51.194;17.150;2023-02-28T04:40:44;21.60;;;11.50;;
17631;SDS011;8934;51.194;17.150;2023-02-28T04:43:32;24.42;;;12.63;;
17631;SDS011;8934;51.194;17.150;2023-02-28T04:46:19;28.88;;;13.27;;
17631;SDS011;8934;51.194;17.150;2023-02-28T04:49:07;22.13;;;11.27;;
17631;SDS011;8934;51.194;17.150;2023-02-28T04:51:59;23.58;;;12.35;;
17631;SDS011;8934;51.194;17.150;2023-02-28T04:54:46;28.48;;;13.95;;
17631;SDS011;8934;51.194;17.150;2023-02-28T04:57:34;26.35;;;13.27;;
17631;SDS011;8934;51.194;17.150;2023-02-28T05:00:22;31.92;;;13.95;;
17631;SDS011;8934;51.194;17.150;2023-02-28T05:03:10;28.42;;;13.80;;
17631;SDS011;8934;51.194;17.150;2023-02-28T05:05:58;29.73;;;13.90;;
17631;SDS011;8934;51.194;17.150;2023-02-28T05:08:47;31.13;;;15.07;;
17631;SDS011;8934;51.194;17.150;2023-02-28T05:11:34;29.40;;;14.63;;
17631;SDS011;8934;51.194;17.150;2023-02-28T05:14:23;43.03;;;17.67;;
17631;SDS011;8934;51.194;17.150;2023-02-28T05:17:11;42.80;;;19.65;;
17631;SDS011;8934;51.194;17.150;2023-02-28T05:19:58;38.67;;;20.08;;
17631;SDS011;8934;51.194;17.150;2023-02-28T05:23:00;37.97;;;17.92;;
17631;SDS011;8934;51.194;17.150;2023-02-28T05:25:50;34.75;;;16.60;;
17631;SDS011;8934;51.194;17.150;2023-02-28T05:28:38;33.38;;;16.30;;
17631;SDS011;8934;51.194;17.150;2023-02-28T05:31:26;30.48;;;15.35;;
17631;SDS011;8934;51.194;17.150;2023-02-28T05:34:14;33.60;;;16.10;;
17631;SDS011;8934;51.194;17.150;2023-02-28T05:37:01;30.65;;;15.23;;
17631;SDS011;8934;51.194;17.150;2023-02-28T05:39:49;30.88;;;15.57;;
17631;SDS011;8934;51.194;17.150;2023-02-28T05:42:38;36.90;;;16.10;;
17631;SDS011;8934;51.194;17.150;2023-02-28T05:45:26;37.15;;;17.38;;
17631;SDS011;8934;51.194;17.150;2023-02-28T05:48:14;44.45;;;18.48;;
17631;SDS011;8934;51.194;17.150;2023-02-28T05:51:02;41.58;;;16.52;;
17631;SDS011;8934;51.194;17.150;2023-02-28T05:53:51;35.50;;;17.17;;
17631;SDS011;8934;51.194;17.150;2023-02-28T05:56:38;35.40;;;17.77;;
17631;SDS011;8934;51.194;17.150;2023-02-28T05:59:31;36.50;;;18.55;;
17631;SDS011;8934;51.194;17.150;2023-02-28T06:02:19;44.33;;;19.40;;
17631;SDS011;8934;51.194;17.150;2023-02-28T06:05:07;37.47;;;20.52;;
17631;SDS011;8934;51.194;17.150;2023-02-28T06:07:59;45.28;;;21.60;;
17631;SDS011;8934;51.194;17.150;2023-02-28T06:10:47;43.55;;;19.92;;
17631;SDS011;8934;51.194;17.150;2023-02-28T06:13:34;36.65;;;17.63;;
17631;SDS011;8934;51.194;17.150;2023-02-28T06:16:23;54.35;;;21.30;;
17631;SDS011;8934;51.194;17.150;2023-02-28T06:19:11;41.83;;;18.90;;
17631;SDS011;8934;51.194;17.150;2023-02-28T06:22:00;45.53;;;19.35;;
17631;SDS011;8934;51.194;17.150;2023-02-28T06:24:48;37.63;;;21.13;;
17631;SDS011;8934;51.194;17.150;2023-02-28T06:27:36;44.65;;;21.15;;
17631;SDS011;8934;51.194;17.150;2023-02-28T06:30:23;41.80;;;18.80;;
17631;SDS011;8934;51.194;17.150;2023-02-28T06:33:14;39.95;;;18.13;;
17631;SDS011;8934;51.194;17.150;2023-02-28T06:36:01;43.38;;;20.38;;
17631;SDS011;8934;51.194;17.150;2023-02-28T06:38:50;42.78;;;18.52;;
17631;SDS011;8934;51.194;17.150;2023-02-28T06:41:40;41.78;;;18.60;;
17631;SDS011;8934;51.194;17.150;2023-02-28T06:44:39;39.22;;;18.63;;
17631;SDS011;8934;51.194;17.150;2023-02-28T06:47:30;33.47;;;17.50;;
17631;SDS011;8934;51.194;17.150;2023-02-28T06:50:19;47.90;;;19.27;;
17631;SDS011;8934;51.194;17.150;2023-02-28T06:53:07;46.10;;;20.33;;
17631;SDS011;8934;51.194;17.150;2023-02-28T06:55:55;42.83;;;21.98;;
17631;SDS011;8934;51.194;17.150;2023-02-28T06:58:45;47.00;;;21.00;;
17631;SDS011;8934;51.194;17.150;2023-02-28T07:01:33;44.35;;;21.98;;
17631;SDS011;8934;51.194;17.150;2023-02-28T07:04:21;40.25;;;21.88;;
17631;SDS011;8934;51.194;17.150;2023-02-28T07:07:10;39.97;;;20.42;;
17631;SDS011;8934;51.194;17.150;2023-02-28T07:09:58;45.42;;;21.05;;
17631;SDS011;8934;51.194;17.150;2023-02-28T07:12:46;54.25;;;24.10;;
17631;SDS011;8934;51.194;17.150;2023-02-28T07:15:33;51.47;;;24.10;;
17631;SDS011;8934;51.194;17.150;2023-02-28T07:18:25;50.78;;;21.88;;
17631;SDS011;8934;51.194;17.150;2023-02-28T07:21:14;48.53;;;23.63;;
17631;SDS011;8934;51.194;17.150;2023-02-28T07:24:03;41.25;;;19.65;;
17631;SDS011;8934;51.194;17.150;2023-02-28T07:26:51;38.83;;;19.00;;
17631;SDS011;8934;51.194;17.150;2023-02-28T07:29:38;32.55;;;17.30;;
17631;SDS011;8934;51.194;17.150;2023-02-28T07:32:26;28.85;;;16.30;;
17631;SDS011;8934;51.194;17.150;2023-02-28T07:35:14;32.65;;;15.80;;
17631;SDS011;8934;51.194;17.150;2023-02-28T07:38:01;24.10;;;12.80;;
17631;SDS011;8934;51.194;17.150;2023-02-28T07:40:51;28.88;;;14.00;;
17631;SDS011;8934;51.194;17.150;2023-02-28T07:43:39;27.52;;;12.85;;
17631;SDS011;8934;51.194;17.150;2023-02-28T07:46:26;22.75;;;12.25;;
17631;SDS011;8934;51.194;17.150;2023-02-28T07:49:15;22.95;;;11.65;;
17631;SDS011;8934;51.194;17.150;2023-02-28T07:52:03;18.50;;;11.18;;
17631;SDS011;8934;51.194;17.150;2023-02-28T07:54:52;21.80;;;10.48;;
17631;SDS011;8934;51.194;17.150;2023-02-28T07:57:41;18.58;;;10.45;;
17631;SDS011;8934;51.194;17.150;2023-02-28T08:00:28;18.48;;;9.93;;
17631;SDS011;8934;51.194;17.150;2023-02-28T08:03:17;19.55;;;10.25;;
17631;SDS011;8934;51.194;17.150;2023-02-28T08:06:06;18.92;;;10.18;;
17631;SDS011;8934;51.194;17.150;2023-02-28T08:09:01;16.40;;;8.98;;
17631;SDS011;8934;51.194;17.150;2023-02-28T08:11:49;147.98;;;97.63;;
17631;SDS011;8934;51.194;17.150;2023-02-28T08:14:38;30.35;;;19.33;;
17631;SDS011;8934;51.194;17.150;2023-02-28T08:17:26;20.08;;;11.20;;
17631;SDS011;8934;51.194;17.150;2023-02-28T08:20:13;20.45;;;10.95;;
17631;SDS011;8934;51.194;17.150;2023-02-28T08:23:01;18.13;;;10.90;;
17631;SDS011;8934;51.194;17.150;2023-02-28T08:25:52;16.58;;;10.05;;
17631;SDS011;8934;51.194;17.150;2023-02-28T08:28:40;20.83;;;10.48;;
17631;SDS011;8934;51.194;17.150;2023-02-28T08:31:29;28.25;;;13.63;;
17631;SDS011;8934;51.194;17.150;2023-02-28T08:34:17;19.73;;;12.18;;
17631;SDS011;8934;51.194;17.150;2023-02-28T08:37:04;20.48;;;10.00;;
17631;SDS011;8934;51.194;17.150;2023-02-28T08:39:52;18.92;;;9.45;;
17631;SDS011;8934;51.194;17.150;2023-02-28T08:42:41;17.27;;;9.65;;
17631;SDS011;8934;51.194;17.150;2023-02-28T08:45:28;18.23;;;10.40;;
17631;SDS011;8934;51.194;17.150;2023-02-28T08:48:17;18.85;;;11.65;;
17631;SDS011;8934;51.194;17.150;2023-02-28T08:51:06;19.42;;;10.63;;
17631;SDS011;8934;51.194;17.150;2023-02-28T08:53:57;20.15;;;10.13;;
17631;SDS011;8934;51.194;17.150;2023-02-28T08:56:46;19.77;;;11.10;;
17631;SDS011;8934;51.194;17.150;2023-02-28T08:59:34;18.40;;;9.95;;
17631;SDS011;8934;51.194;17.150;2023-02-28T09:02:22;14.82;;;10.57;;
17631;SDS011;8934;51.194;17.150;2023-02-28T09:05:11;17.98;;;10.00;;
17631;SDS011;8934;51.194;17.150;2023-02-28T09:07:58;14.90;;;9.40;;
17631;SDS011;8934;51.194;17.150;2023-02-28T09:10:46;21.08;;;10.30;;
17631;SDS011;8934;51.194;17.150;2023-02-28T09:13:33;19.92;;;10.30;;
17631;SDS011;8934;51.194;17.150;2023-02-28T09:16:21;19.83;;;10.55;;
17631;SDS011;8934;51.194;17.150;2023-02-28T09:19:10;19.60;;;9.48;;
17631;SDS011;8934;51.194;17.150;2023-02-28T09:21:59;14.82;;;10.00;;
17631;SDS011;8934;51.194;17.150;2023-02-28T09:24:46;23.02;;;10.35;;
17631;SDS011;8934;51.194;17.150;2023-02-28T09:27:34;17.70;;;9.60;;
17631;SDS011;8934;51.194;17.150;2023-02-28T09:30:22;15.93;;;9.85;;
17631;SDS011;8934;51.194;17.150;2023-02-28T09:33:09;16.85;;;8.38;;
17631;SDS011;8934;51.194;17.150;2023-02-28T09:35:58;16.45;;;8.93;;
17631;SDS011;8934;51.194;17.150;2023-02-28T09:38:48;20.55;;;8.32;;
17631;SDS011;8934;51.194;17.150;2023-02-28T09:41:37;13.50;;;7.57;;
17631;SDS011;8934;51.194;17.150;2023-02-28T09:44:35;12.37;;;6.83;;
17631;SDS011;8934;51.194;17.150;2023-02-28T09:47:27;15.98;;;9.05;;
17631;SDS011;8934;51.194;17.150;2023-02-28T09:50:28;11.82;;;5.68;;
17631;SDS011;8934;51.194;17.150;2023-02-28T09:53:19;13.02;;;7.10;;
17631;SDS011;8934;51.194;17.150;2023-02-28T09:56:15;14.43;;;6.22;;
17631;SDS011;8934;51.194;17.150;2023-02-28T09:59:13;9.65;;;5.25;;
17631;SDS011;8934;51.194;17.150;2023-02-28T10:02:16;10.18;;;6.40;;
17631;SDS011;8934;51.194;17.150;2023-02-28T10:05:21;11.60;;;6.25;;
17631;SDS011;8934;51.194;17.150;2023-02-28T10:08:13;10.90;;;5.55;;
17631;SDS011;8934;51.194;17.150;2023-02-28T10:11:03;13.73;;;6.65;;
17631;SDS011;8934;51.194;17.150;2023-02-28T10:13:56;13.48;;;7.45;;
17631;SDS011;8934;51.194;17.150;2023-02-28T10:16:52;11.90;;;6.43;;
17631;SDS011;8934;51.194;17.150;2023-02-28T10:19:42;11.70;;;6.25;;
17631;SDS011;8934;51.194;17.150;2023-02-28T10:22:40;11.95;;;6.68;;
17631;SDS011;8934;51.194;17.150;2023-02-28T10:25:37;13.18;;;6.82;;
17631;SDS011;8934;51.194;17.150;2023-02-28T10:28:26;15.07;;;8.55;;
17631;SDS011;8934;51.194;17.150;2023-02-28T10:31:18;17.30;;;10.75;;
17631;SDS011;8934;51.194;17.150;2023-02-28T10:34:11;21.55;;;13.43;;
17631;SDS011;8934;51.194;17.150;2023-02-28T10:36:59;16.08;;;10.35;;
17631;SDS011;8934;51.194;17.150;2023-02-28T10:39:53;22.20;;;14.65;;
17631;SDS011;8934;51.194;17.150;2023-02-28T10:42:41;19.45;;;11.65;;
17631;SDS011;8934;51.194;17.150;2023-02-28T10:45:29;17.85;;;9.95;;
17631;SDS011;8934;51.194;17.150;2023-02-28T10:48:29;18.90;;;10.05;;
17631;SDS011;8934;51.194;17.150;2023-02-28T10:51:19;16.05;;;8.48;;
17631;SDS011;8934;51.194;17.150;2023-02-28T10:54:16;17.33;;;10.07;;
17631;SDS011;8934;51.194;17.150;2023-02-28T10:57:20;17.90;;;9.80;;
17631;SDS011;8934;51.194;17.150;2023-02-28T11:00:13;16.48;;;8.40;;
17631;SDS011;8934;51.194;17.150;2023-02-28T11:03:05;14.60;;;8.73;;
17631;SDS011;8934;51.194;17.150;2023-02-28T11:06:15;16.92;;;9.52;;
17631;SDS011;8934;51.194;17.150;2023-02-28T11:09:06;18.50;;;10.52;;
17631;SDS011;8934;51.194;17.150;2023-02-28T11:12:07;16.33;;;10.15;;
17631;SDS011;8934;51.194;17.150;2023-02-28T11:15:18;16.52;;;9.63;;
17631;SDS011;8934;51.194;17.150;2023-02-28T11:18:18;13.15;;;8.02;;
17631;SDS011;8934;51.194;17.150;2023-02-28T11:21:09;13.40;;;7.82;;
17631;SDS011;8934;51.194;17.150;2023-02-28T11:24:06;18.83;;;10.23;;
17631;SDS011;8934;51.194;17.150;2023-02-28T11:27:03;16.48;;;9.50;;
17631;SDS011;8934;51.194;17.150;2023-02-28T11:29:50;15.73;;;9.27;;
17631;SDS011;8934;51.194;17.150;2023-02-28T11:32:38;17.05;;;10.15;;
17631;SDS011;8934;51.194;17.150;2023-02-28T11:35:36;16.13;;;8.95;;
17631;SDS011;8934;51.194;17.150;2023-02-28T11:38:27;16.25;;;8.80;;
17631;SDS011;8934;51.194;17.150;2023-02-28T11:44:31;17.83;;;9.05;;
17631;SDS011;8934;51.194;17.150;2023-02-28T11:47:32;16.88;;;8.57;;
17631;SDS011;8934;51.194;17.150;2023-02-28T11:50:29;17.75;;;8.98;;
17631;SDS011;8934;51.194;17.150;2023-02-28T11:53:36;12.80;;;7.20;;
17631;SDS011;8934;51.194;17.150;2023-02-28T11:56:38;11.80;;;6.47;;
17631;SDS011;8934;51.194;17.150;2023-02-28T11:59:41;11.57;;;6.85;;
17631;SDS011;8934;51.194;17.150;2023-02-28T12:02:44;12.88;;;7.28;;
17631;SDS011;8934;51.194;17.150;2023-02-28T12:05:42;12.77;;;7.00;;
17631;SDS011;8934;51.194;17.150;2023-02-28T12:11:44;16.27;;;8.55;;
17631;SDS011;8934;51.194;17.150;2023-02-28T12:14:47;18.13;;;9.23;;
17631;SDS011;8934;51.194;17.150;2023-02-28T12:17:47;14.32;;;8.00;;
17631;SDS011;8934;51.194;17.150;2023-02-28T12:20:52;13.63;;;8.30;;
17631;SDS011;8934;51.194;17.150;2023-02-28T12:27:05;13.85;;;7.15;;
17631;SDS011;8934;51.194;17.150;2023-02-28T12:29:57;15.02;;;9.35;;
17631;SDS011;8934;51.194;17.150;2023-02-28T12:32:49;15.60;;;8.27;;
17631;SDS011;8934;51.194;17.150;2023-02-28T12:35:43;17.55;;;9.13;;
17631;SDS011;8934;51.194;17.150;2023-02-28T12:38:36;19.92;;;9.48;;
17631;SDS011;8934;51.194;17.150;2023-02-28T12:41:33;20.48;;;11.02;;
17631;SDS011;8934;51.194;17.150;2023-02-28T12:44:27;18.75;;;10.52;;
17631;SDS011;8934;51.194;17.150;2023-02-28T12:47:18;17.88;;;10.63;;
17631;SDS011;8934;51.194;17.150;2023-02-28T12:50:06;17.10;;;10.98;;
17631;SDS011;8934;51.194;17.150;2023-02-28T12:52:59;21.10;;;10.40;;
17631;SDS011;8934;51.194;17.150;2023-02-28T12:55:51;19.40;;;10.88;;
17631;SDS011;8934;51.194;17.150;2023-02-28T12:58:47;22.33;;;11.82;;
17631;SDS011;8934;51.194;17.150;2023-02-28T13:01:52;20.75;;;11.90;;
17631;SDS011;8934;51.194;17.150;2023-02-28T13:08:36;20.08;;;11.15;;
17631;SDS011;8934;51.194;17.150;2023-02-28T13:11:46;19.33;;;10.25;;
17631;SDS011;8934;51.194;17.150;2023-02-28T13:14:37;17.08;;;8.63;;
17631;SDS011;8934;51.194;17.150;2023-02-28T13:17:25;14.90;;;8.05;;
17631;SDS011;8934;51.194;17.150;2023-02-28T13:20:16;15.45;;;8.05;;
17631;SDS011;8934;51.194;17.150;2023-02-28T13:23:16;18.23;;;8.90;;
17631;SDS011;8934;51.194;17.150;2023-02-28T13:33:36;20.27;;;9.68;;
17631;SDS011;8934;51.194;17.150;2023-02-28T13:36:45;17.13;;;10.55;;
17631;SDS011;8934;51.194;17.150;2023-02-28T13:39:45;13.93;;;8.63;;
17631;SDS011;8934;51.194;17.150;2023-02-28T13:42:35;14.80;;;7.70;;
17631;SDS011;8934;51.194;17.150;2023-02-28T13:45:25;19.38;;;9.02;;
17631;SDS011;8934;51.194;17.150;2023-02-28T13:48:16;16.58;;;8.88;;
17631;SDS011;8934;51.194;17.150;2023-02-28T13:54:29;14.82;;;10.05;;
17631;SDS011;8934;51.194;17.150;2023-02-28T13:57:28;13.48;;;7.40;;
17631;SDS011;8934;51.194;17.150;2023-02-28T14:00:33;17.83;;;10.27;;
17631;SDS011;8934;51.194;17.150;2023-02-28T14:03:36;14.43;;;8.50;;
17631;SDS011;8934;51.194;17.150;2023-02-28T14:06:32;15.95;;;8.90;;
17631;SDS011;8934;51.194;17.150;2023-02-28T14:09:24;15.10;;;8.85;;
17631;SDS011;8934;51.194;17.150;2023-02-28T14:15:54;14.60;;;7.65;;
17631;SDS011;8934;51.194;17.150;2023-02-28T14:18:47;16.23;;;8.98;;
17631;SDS011;8934;51.194;17.150;2023-02-28T14:21:38;13.00;;;8.10;;
17631;SDS011;8934;51.194;17.150;2023-02-28T14:24:46;32.78;;;19.58;;
17631;SDS011;8934;51.194;17.150;2023-02-28T14:28:01;21.00;;;11.65;;
17631;SDS011;8934;51.194;17.150;2023-02-28T14:31:00;17.23;;;9.20;;
17631;SDS011;8934;51.194;17.150;2023-02-28T14:33:57;18.97;;;9.53;;
17631;SDS011;8934;51.194;17.150;2023-02-28T14:37:00;16.03;;;8.20;;
17631;SDS011;8934;51.194;17.150;2023-02-28T14:39:51;14.18;;;8.05;;
17631;SDS011;8934;51.194;17.150;2023-02-28T14:42:39;13.98;;;8.23;;
17631;SDS011;8934;51.194;17.150;2023-02-28T14:45:29;14.65;;;8.48;;
17631;SDS011;8934;51.194;17.150;2023-02-28T14:48:18;13.80;;;8.45;;
17631;SDS011;8934;51.194;17.150;2023-02-28T14:51:10;13.52;;;8.60;;
17631;SDS011;8934;51.194;17.150;2023-02-28T14:53:58;12.10;;;7.38;;
17631;SDS011;8934;51.194;17.150;2023-02-28T14:56:49;10.98;;;6.63;;
17631;SDS011;8934;51.194;17.150;2023-02-28T14:59:37;17.08;;;7.72;;
17631;SDS011;8934;51.194;17.150;2023-02-28T15:02:26;13.02;;;7.40;;
17631;SDS011;8934;51.194;17.150;2023-02-28T15:05:20;12.82;;;6.70;;
17631;SDS011;8934;51.194;17.150;2023-02-28T15:08:14;11.50;;;6.95;;
17631;SDS011;8934;51.194;17.150;2023-02-28T15:11:04;10.90;;;7.32;;
17631;SDS011;8934;51.194;17.150;2023-02-28T15:13:56;12.20;;;6.68;;
17631;SDS011;8934;51.194;17.150;2023-02-28T15:16:43;12.13;;;7.47;;
17631;SDS011;8934;51.194;17.150;2023-02-28T15:19:33;8.93;;;6.40;;
17631;SDS011;8934;51.194;17.150;2023-02-28T15:22:27;10.93;;;7.13;;
17631;SDS011;8934;51.194;17.150;2023-02-28T15:25:20;13.38;;;7.95;;
17631;SDS011;8934;51.194;17.150;2023-02-28T15:28:11;12.25;;;8.35;;
17631;SDS011;8934;51.194;17.150;2023-02-28T15:31:04;13.52;;;8.60;;
17631;SDS011;8934;51.194;17.150;2023-02-28T15:34:15;14.30;;;7.53;;
17631;SDS011;8934;51.194;17.150;2023-02-28T15:40:18;12.88;;;6.50;;
17631;SDS011;8934;51.194;17.150;2023-02-28T15:43:14;9.88;;;6.30;;
17631;SDS011;8934;51.194;17.150;2023-02-28T15:46:04;13.10;;;6.75;;
17631;SDS011;8934;51.194;17.150;2023-02-28T15:48:55;13.13;;;7.55;;
17631;SDS011;8934;51.194;17.150;2023-02-28T15:51:43;15.90;;;9.27;;
17631;SDS011;8934;51.194;17.150;2023-02-28T15:54:32;15.90;;;8.98;;
17631;SDS011;8934;51.194;17.150;2023-02-28T15:57:22;13.32;;;8.48;;
17631;SDS011;8934;51.194;17.150;2023-02-28T16:00:13;19.50;;;11.40;;
17631;SDS011;8934;51.194;17.150;2023-02-28T16:06:28;23.20;;;12.02;;
17631;SDS011;8934;51.194;17.150;2023-02-28T16:09:22;17.48;;;11.15;;
17631;SDS011;8934;51.194;17.150;2023-02-28T16:12:10;18.73;;;10.20;;
17631;SDS011;8934;51.194;17.150;2023-02-28T16:15:00;16.40;;;9.60;;
17631;SDS011;8934;51.194;17.150;2023-02-28T16:17:52;18.27;;;10.00;;
17631;SDS011;8934;51.194;17.150;2023-02-28T16:20:42;35.20;;;18.00;;
17631;SDS011;8934;51.194;17.150;2023-02-28T16:23:30;26.20;;;14.60;;
17631;SDS011;8934;51.194;17.150;2023-02-28T16:26:19;23.90;;;13.07;;
17631;SDS011;8934;51.194;17.150;2023-02-28T16:29:09;24.00;;;12.60;;
17631;SDS011;8934;51.194;17.150;2023-02-28T16:32:03;23.65;;;12.75;;
17631;SDS011;8934;51.194;17.150;2023-02-28T16:34:52;29.27;;;15.82;;
17631;SDS011;8934;51.194;17.150;2023-02-28T16:37:41;28.98;;;14.05;;
17631;SDS011;8934;51.194;17.150;2023-02-28T16:40:29;34.40;;;15.40;;
17631;SDS011;8934;51.194;17.150;2023-02-28T16:43:22;60.35;;;25.10;;
17631;SDS011;8934;51.194;17.150;2023-02-28T16:46:11;70.15;;;27.40;;
17631;SDS011;8934;51.194;17.150;2023-02-28T16:48:59;44.78;;;21.77;;
17631;SDS011;8934;51.194;17.150;2023-02-28T16:51:47;46.72;;;20.15;;
17631;SDS011;8934;51.194;17.150;2023-02-28T16:54:35;35.40;;;16.23;;
17631;SDS011;8934;51.194;17.150;2023-02-28T16:57:23;36.47;;;16.13;;
17631;SDS011;8934;51.194;17.150;2023-02-28T17:00:11;38.10;;;17.20;;
17631;SDS011;8934;51.194;17.150;2023-02-28T17:03:00;35.10;;;16.02;;
17631;SDS011;8934;51.194;17.150;2023-02-28T17:05:50;32.28;;;16.35;;
17631;SDS011;8934;51.194;17.150;2023-02-28T17:08:39;34.67;;;15.85;;
17631;SDS011;8934;51.194;17.150;2023-02-28T17:11:28;37.92;;;18.55;;
17631;SDS011;8934;51.194;17.150;2023-02-28T17:14:16;32.38;;;15.68;;
17631;SDS011;8934;51.194;17.150;2023-02-28T17:17:04;32.67;;;15.95;;
17631;SDS011;8934;51.194;17.150;2023-02-28T17:19:52;31.75;;;15.93;;
17631;SDS011;8934;51.194;17.150;2023-02-28T17:22:40;35.90;;;16.83;;
17631;SDS011;8934;51.194;17.150;2023-02-28T17:25:27;30.98;;;16.15;;